Time;durP1;ratioP1;P1;durP2;ratioP2;P2;SDS_P1;SDS_P2;PMS_P1;PMS_P2;Temp;Humidity;BMP_temperature;BMP_pressure;BME280_temperature;BME280_humidity;BME280_pressure;Samples;Min_cycle;Max_cycle;Signal;HPM_P1;HPM_P2
2022/04/12 00:07:11;;;;;;;2.23;1.20;;;;;;;;;;20814448;28;20222;-67
2022/04/12 00:27:33;;;;;;;1.57;1.03;;;;;;;;;;20819702;28;20222;-67
2022/04/12 00:37:35;;;;;;;1.13;0.70;;;11.00;99.90;;;;;;20770976;28;20265;-67
2022/04/12 00:47:39;;;;;;;1.53;0.90;;;;;;;;;;20794258;28;20565;-67
2022/04/12 00:57:42;;;;;;;1.40;0.80;;;11.00;99.90;;;;;;20778090;28;20658;-67
2022/04/12 01:07:44;;;;;;;2.40;1.27;;;11.20;99.90;;;;;;20793442;28;20771;-67
2022/04/12 01:17:47;;;;;;;1.80;1.00;;;10.80;99.90;;;;;;20793071;28;20673;-67
2022/04/12 01:27:49;;;;;;;2.40;1.10;;;;;;;;;;20808141;28;20226;-67
2022/04/12 01:37:51;;;;;;;1.80;1.10;;;;;;;;;;20791366;28;20280;-68
2022/04/12 01:47:53;;;;;;;2.13;1.10;;;10.80;99.90;;;;;;20790789;28;20587;-67
2022/04/12 01:57:55;;;;;;;1.97;1.10;;;;;;;;;;20806772;28;20236;-67
2022/04/12 02:07:57;;;;;;;2.13;1.30;;;;;;;;;;20775150;28;20268;-67
2022/04/12 02:17:59;;;;;;;1.90;1.07;;;;;;;;;;20822947;28;20222;-67
2022/04/12 02:28:01;;;;;;;1.77;1.27;;;;;;;;;;20805847;28;20222;-67
2022/04/12 02:38:02;;;;;;;1.73;1.00;;;;;;;;;;20804771;28;20221;-67
2022/04/12 02:48:06;;;;;;;1.70;1.00;;;;;;;;;;20819378;28;20241;-67
2022/04/12 02:58:08;;;;;;;2.40;1.13;;;;;;;;;;20811288;28;20265;-67
2022/04/12 03:08:09;;;;;;;2.00;0.90;;;;;;;;;;20753881;28;20265;-67
2022/04/12 03:18:12;;;;;;;1.40;1.00;;;;;;;;;;20736298;28;20227;-67
2022/04/12 03:28:14;;;;;;;1.60;0.97;;;;;;;;;;20719260;28;20239;-67
2022/04/12 03:38:16;;;;;;;1.43;0.93;;;;;;;;;;20718815;28;20281;-67
2022/04/12 03:48:19;;;;;;;2.13;0.93;;;;;;;;;;20734660;28;20219;-67
2022/04/12 03:58:21;;;;;;;1.40;0.83;;;;;;;;;;20717503;28;20262;-68
2022/04/12 04:08:23;;;;;;;1.63;1.00;;;;;;;;;;20790858;28;20588;-67
2022/04/12 04:18:25;;;;;;;1.23;0.90;;;;;;;;;;20813471;28;20264;-68
2022/04/12 04:28:29;;;;;;;2.83;1.03;;;;;;;;;;20789113;28;20879;-68
2022/04/12 04:38:32;;;;;;;1.67;1.00;;;;;;;;;;20811025;28;20288;-68
2022/04/12 04:48:34;;;;;;;1.67;0.90;;;;;;;;;;20794764;28;20207;-68
2022/04/12 04:58:36;;;;;;;1.43;0.77;;;;;;;;;;20810199;28;20297;-68
2022/04/12 05:08:38;;;;;;;1.03;0.80;;;;;;;;;;20793390;28;20260;-68
2022/04/12 05:18:40;;;;;;;1.63;1.10;;;;;;;;;;20799003;28;20273;-68
2022/04/12 05:28:42;;;;;;;1.60;1.03;;;;;;;;;;20807157;28;20214;-67
2022/04/12 05:38:43;;;;;;;1.40;0.90;;;;;;;;;;20790737;28;20575;-68
2022/04/12 05:48:45;;;;;;;1.40;0.97;;;;;;;;;;20790416;28;20638;-67
2022/04/12 05:58:47;;;;;;;1.23;0.80;;;;;;;;;;20844247;22;20226;-69
2022/04/12 06:08:50;;;;;;;2.47;0.87;;;;;;;;;;20875812;28;20234;-68
2022/04/12 06:18:52;;;;;;;1.60;0.80;;;;;;;;;;20886154;28;20201;-68
2022/04/12 06:28:54;;;;;;;1.50;0.87;;;;;;;;;;20884830;28;20593;-69
2022/04/12 06:38:57;;;;;;;1.17;0.90;;;;;;;;;;20894128;28;20268;-68
2022/04/12 06:48:58;;;;;;;1.60;1.07;;;;;;;;;;20874459;28;20260;-69
2022/04/12 06:59:00;;;;;;;1.27;0.90;;;;;;;;;;20881297;28;20409;-69
2022/04/12 07:09:05;;;;;;;1.23;0.70;;;;;;;;;;20902457;28;20217;-72
2022/04/12 07:19:07;;;;;;;1.57;0.83;;;;;;;;;;20909630;28;20206;-70
2022/04/12 07:29:08;;;;;;;1.20;0.80;;;;;;;;;;20913496;28;20217;-70
2022/04/12 07:39:10;;;;;;;1.23;0.63;;;;;;;;;;20911621;28;20295;-70
2022/04/12 07:49:12;;;;;;;0.67;0.53;;;12.30;99.90;;;;;;20912144;28;20788;-70
2022/04/12 07:59:14;;;;;;;3.03;1.60;;;;;;;;;;20895962;28;20272;-70
2022/04/12 08:09:16;;;;;;;1.40;0.90;;;;;;;;;;20869281;28;20213;-70
2022/04/12 08:19:17;;;;;;;1.70;1.03;;;;;;;;;;20886948;28;20228;-70
2022/04/12 08:29:19;;;;;;;3.17;1.00;;;;;;;;;;20906286;28;20573;-70
2022/04/12 08:39:21;;;;;;;2.00;1.07;;;;;;;;;;20906899;28;20259;-70
2022/04/12 08:49:26;;;;;;;1.13;0.70;;;13.90;99.90;;;;;;20907395;28;20218;-70
2022/04/12 08:59:28;;;;;;;1.07;0.70;;;;;;;;;;20887376;28;20218;-70
2022/04/12 09:09:30;;;;;;;1.87;0.90;;;14.00;99.90;;;;;;20828475;28;20222;-70
2022/04/12 09:19:51;;;;;;;3.20;2.30;;;;;;;;;;20821379;28;20748;-70
2022/04/12 09:29:55;;;;;;;1.77;1.00;;;15.10;99.90;;;;;;20866740;28;20754;-70
2022/04/12 09:39:59;;;;;;;2.03;0.83;;;16.00;99.90;;;;;;20869632;28;20206;-71
2022/04/12 09:50:01;;;;;;;2.20;1.20;;;;;;;;;;20824991;28;20249;-70
2022/04/12 10:00:03;;;;;;;1.30;0.80;;;16.60;99.90;;;;;;20868672;28;20279;-70
2022/04/12 10:10:06;;;;;;;2.27;1.00;;;16.50;99.90;;;;;;20830825;28;20267;-71
2022/04/12 10:20:09;;;;;;;1.90;1.10;;;17.00;99.90;;;;;;20896872;28;20210;-71
2022/04/12 10:30:17;;;;;;;1.43;0.70;;;17.30;99.90;;;;;;20899964;28;20554;-70
2022/04/12 10:40:20;;;;;;;2.00;1.00;;;;;;;;;;20894351;28;20218;-70
2022/04/12 10:50:21;;;;;;;2.97;1.10;;;;;;;;;;20913645;28;20221;-71
2022/04/12 11:00:23;;;;;;;1.67;0.80;;;18.50;99.90;;;;;;20916121;28;20279;-71
2022/04/12 11:10:25;;;;;;;2.00;0.63;;;18.70;99.90;;;;;;20898086;28;20213;-71
2022/04/12 11:20:28;;;;;;;1.67;0.80;;;18.80;99.90;;;;;;20914945;28;20209;-71
2022/04/12 11:30:30;;;;;;;2.03;0.90;;;;;;;;;;20910338;28;20210;-70
2022/04/12 11:40:32;;;;;;;1.93;0.80;;;;;;;;;;20897567;28;20221;-70
2022/04/12 11:50:35;;;;;;;1.23;0.60;;;19.60;99.90;;;;;;20881308;28;20692;-70
2022/04/12 12:00:36;;;;;;;3.13;0.70;;;;;;;;;;20933660;22;20636;-67
2022/04/12 12:10:38;;;;;;;2.00;0.70;;;;;;;;;;20891026;28;20227;-67
2022/04/12 12:20:41;;;;;;;1.13;0.50;;;;;;;;;;20911884;28;20280;-67
2022/04/12 12:30:55;;;;;;;0.43;0.30;;;20.30;99.90;;;;;;20879252;28;20284;-66
2022/04/12 12:40:58;;;;;;;1.20;0.57;;;;;;;;;;20877920;28;20206;-66
2022/04/12 12:51:04;;;;;;;0.80;0.30;;;;;;;;;;20877405;28;20222;-67
2022/04/12 13:01:06;;;;;;;0.90;0.50;;;20.50;99.90;;;;;;20859468;28;20558;-67
2022/04/12 13:11:10;;;;;;;1.23;0.50;;;;;;;;;;20891750;28;20268;-67
2022/04/12 13:21:13;;;;;;;1.20;0.60;;;;;;;;;;20867796;28;20215;-66
2022/04/12 13:31:14;;;;;;;0.80;0.40;;;;;;;;;;20856579;28;20228;-67
2022/04/12 13:41:16;;;;;;;2.03;0.50;;;;;;;;;;20869047;28;20211;-67
2022/04/12 13:51:18;;;;;;;0.67;0.50;;;;;;;;;;20855242;28;20633;-67
2022/04/12 14:01:20;;;;;;;0.70;0.47;;;;;;;;;;20870870;28;20219;-67
2022/04/12 14:11:22;;;;;;;1.77;0.90;;;;;;;;;;20854215;28;20288;-67
2022/04/12 14:21:24;;;;;;;2.80;0.50;;;;;;;;;;20867991;28;20243;-67
2022/04/12 14:31:25;;;;;;;0.80;0.60;;;;;;;;;;20853307;28;20227;-67
2022/04/12 14:41:30;;;;;;;0.40;0.40;;;;;;;;;;20851954;28;20209;-67
2022/04/12 14:51:32;;;;;;;1.13;0.50;;;;;;;;;;20885554;28;20240;-67
2022/04/12 15:01:34;;;;;;;0.60;0.40;;;;;;;;;;20885374;28;20224;-67
2022/04/12 15:11:35;;;;;;;0.40;0.30;;;;;;;;;;20852762;28;20310;-67
2022/04/12 15:21:40;;;;;;;1.60;0.40;;;;;;;;;;20862372;28;20566;-67
2022/04/12 15:31:42;;;;;;;0.47;0.30;;;;;;;;;;20898499;28;20224;-66
2022/04/12 15:41:44;;;;;;;0.53;0.40;;;;;;;;;;20882054;28;20676;-66
2022/04/12 15:51:46;;;;;;;1.13;0.43;;;;;;;;;;20864305;28;20225;-66
2022/04/12 16:01:48;;;;;;;0.50;0.33;;;;;;;;;;20864101;28;20220;-67
2022/04/12 16:11:50;;;;;;;1.23;0.40;;;;;;;;;;20895068;28;20241;-67
2022/04/12 16:21:52;;;;;;;1.03;0.30;;;;;;;;;;20910171;28;20244;-67
2022/04/12 16:31:57;;;;;;;1.17;0.50;;;;;;;;;;20886864;28;20297;-67
2022/04/12 16:41:59;;;;;;;0.70;0.33;;;;;;;;;;20891945;28;20225;-67
2022/04/12 16:52:00;;;;;;;0.70;0.30;;;;;;;;;;20877300;28;20271;-66
2022/04/12 17:02:05;;;;;;;0.80;0.40;;;;;;;;;;20869170;28;20232;-67
2022/04/12 17:12:08;;;;;;;0.30;0.30;;;;;;;;;;20892733;28;20655;-67
2022/04/12 17:22:10;;;;;;;0.53;0.40;;;;;;;;;;20850530;28;20220;-67
2022/04/12 17:32:12;;;;;;;0.70;0.30;;;;;;;;;;20869591;28;20224;-67
2022/04/12 17:42:21;;;;;;;2.00;0.30;;;;;;;;;;20904545;28;20235;-67
2022/04/12 17:52:32;;;;;;;1.10;0.50;;;;;;;;;;20868746;28;20219;-67
2022/04/12 18:02:34;;;;;;;0.77;0.60;;;;;;;;;;20893310;22;20779;-71
2022/04/12 18:12:37;;;;;;;0.90;0.60;;;;;;;;;;20901247;28;20228;-71
2022/04/12 18:22:44;;;;;;;2.07;0.97;;;;;;;;;;20900028;28;20683;-72
2022/04/12 18:32:47;;;;;;;0.77;0.50;;;;;;;;;;20899102;28;20780;-72
2022/04/12 18:42:48;;;;;;;0.87;0.40;;;;;;;;;;20882637;28;20250;-72
2022/04/12 18:52:51;;;;;;;0.73;0.40;;;19.80;99.90;;;;;;20903194;28;20288;-72
2022/04/12 19:02:54;;;;;;;0.77;0.50;;;;;;;;;;20907660;28;20349;-72
2022/04/12 19:12:56;;;;;;;2.47;0.40;;;;;;;;;;20884580;28;20235;-72
2022/04/12 19:22:59;;;;;;;2.97;0.60;;;;;;;;;;20897254;28;20214;-72
2022/04/12 19:33:01;;;;;;;1.23;0.70;;;;;;;;;;20895673;28;20788;-71
2022/04/12 19:43:04;;;;;;;1.20;0.70;;;;;;;;;;20896966;28;20675;-70
2022/04/12 19:53:06;;;;;;;2.17;1.00;;;;;;;;;;20899947;28;20208;-72
2022/04/12 20:03:08;;;;;;;3.83;1.30;;;;;;;;;;20893478;28;20212;-70
2022/04/12 20:13:10;;;;;;;1.93;1.10;;;;;;;;;;20894986;28;20772;-70
2022/04/12 20:23:12;;;;;;;3.37;1.00;;;;;;;;;;20905059;28;20265;-71
2022/04/12 20:33:14;;;;;;;1.10;0.70;;;;;;;;;;20924352;28;20205;-71
2022/04/12 20:43:17;;;;;;;1.07;0.70;;;;;;;;;;20928984;28;20209;-71
2022/04/12 20:53:20;;;;;;;1.40;0.63;;;;;;;;;;20888087;28;20219;-70
2022/04/12 21:03:22;;;;;;;0.63;0.47;;;;;;;;;;20904901;28;20631;-72
2022/04/12 21:13:24;;;;;;;1.70;0.80;;;17.90;99.90;;;;;;20902665;28;20206;-71
2022/04/12 21:23:27;;;;;;;0.87;0.60;;;;;;;;;;20903742;28;20198;-71
2022/04/12 21:33:29;;;;;;;1.00;0.60;;;;;;;;;;20896346;28;20226;-71
2022/04/12 21:43:31;;;;;;;1.30;0.80;;;;;;;;;;20900925;28;20222;-71
2022/04/12 21:53:33;;;;;;;1.63;0.80;;;;;;;;;;20900877;28;20201;-71
2022/04/12 22:03:34;;;;;;;1.30;0.80;;;;;;;;;;20899743;28;20706;-71
2022/04/12 22:13:37;;;;;;;1.77;0.90;;;;;;;;;;20817778;28;20554;-71
2022/04/12 22:23:39;;;;;;;1.60;1.00;;;;;;;;;;20821134;28;20694;-71
2022/04/12 22:33:41;;;;;;;1.10;0.70;;;;;;;;;;20850628;28;20701;-71
2022/04/12 22:43:43;;;;;;;1.47;0.90;;;;;;;;;;20843313;28;20244;-71
2022/04/12 22:53:44;;;;;;;0.70;0.60;;;;;;;;;;20835440;28;20210;-71
2022/04/12 23:03:46;;;;;;;1.07;0.70;;;;;;;;;;20866015;28;20214;-71
2022/04/12 23:13:48;;;;;;;1.27;0.80;;;;;;;;;;20917074;28;20232;-71
2022/04/12 23:23:54;;;;;;;1.23;0.70;;;;;;;;;;20915117;28;20219;-71
2022/04/12 23:33:56;;;;;;;1.10;0.70;;;;;;;;;;20896117;28;20649;-71
2022/04/12 23:43:59;;;;;;;1.10;0.80;;;;;;;;;;20848273;28;20218;-71
2022/04/12 23:54:02;;;;;;;1.30;0.90;;;;;;;;;;20909773;28;20629;-70
